CheckWX is a tool to help pilots better visualize weather data.  It is not intended as a substitute for an official pre-flight weather briefing.

00:12:40 UTC

KAWM METAR
West Memphis Municipal Airport
West Memphis, Arkansas, USA
Current

20 mins ago

KAWM 222353Z AUTO 24003KT 10SM CLR 14/04 A3007 RMK AO2 SLP182 T01390039 10189 20139 53004
Observed
Oct-22 @ 23:53 UTC
Wind
  • 240° at 3 KTS
Visibility
10 SM
Flight Rules
VFR
Cloud Levels
  • Clear skies
Temperature
14°C / 57°F
Dewpoint
C / 39°F
Humidity
51%
Altimeter
30.07" Hg
Pressure
1018.32 hPa
Previous

1 hour ago

KAWM 222253Z AUTO 25005KT 10SM CLR 16/03 A3006 RMK AO2 SLP176 T01610028
Observed
Oct-22 @ 22:53 UTC
Wind
  • 250° at 5 KTS
Visibility
10 SM
Flight Rules
VFR
Cloud Levels
  • Clear skies
Temperature
16°C / 61°F
Dewpoint
C / 37°F
Humidity
42%
Altimeter
30.06" Hg
Pressure
1017.92 hPa
Previous

2 hours ago

KAWM 222153Z AUTO 00000KT 10SM CLR 18/02 A3005 RMK AO2 SLP173 T01830017
Observed
Oct-22 @ 21:53 UTC
Visibility
10 SM
Flight Rules
VFR
Cloud Levels
  • Clear skies
Temperature
18°C / 64°F
Dewpoint
C / 36°F
Humidity
34%
Altimeter
30.05" Hg
Pressure
1017.62 hPa